Aviation Digital Data Service (ADDS)

Output produced by METARs form (1527 UTC 18 August 2019)
found at http://www.aviationweather.gov/metar/data/
 
Forecast for: RJOT (TAKAMATSU AIRPOR, JP)
Text: TAF RJOT 181107Z 1812/1918 15005KT 9999 FEW030
Forecast period: 1200 UTC 18 August 2019 to 1800 UTC 19 August 2019
Forecast type: FROM: standard forecast or significant change
Winds: from the SSE (150 degrees) at 6 MPH (5 knots; 2.6 m/s)
Visibility: 6 or more miles 10+ km)
Ceiling: at least 12,000 feet AGL
Clouds: few clouds at 3000 feet AGL
Weather: no significant weather forecast for this period